sensor_id;sensor_type;location;lat;lon;timestamp;P1;durP1;ratioP1;P2;durP2;ratioP2
32236;SDS011;18726;44.732;10.550;2023-10-08T05:28:07;43.95;;;39.15;;
32236;SDS011;18726;44.732;10.550;2023-10-08T05:31:28;49.85;;;42.38;;
32236;SDS011;18726;44.732;10.550;2023-10-08T05:34:56;56.75;;;44.88;;
32236;SDS011;18726;44.732;10.550;2023-10-08T05:38:23;51.40;;;41.45;;
32236;SDS011;18726;44.732;10.550;2023-10-08T05:41:41;47.25;;;38.40;;
32236;SDS011;18726;44.732;10.550;2023-10-08T05:44:55;38.70;;;34.38;;
32236;SDS011;18726;44.732;10.550;2023-10-08T05:48:13;36.15;;;30.63;;
32236;SDS011;18726;44.732;10.550;2023-10-08T05:51:18;42.50;;;35.42;;
32236;SDS011;18726;44.732;10.550;2023-10-08T05:54:37;42.63;;;35.65;;
32236;SDS011;18726;44.732;10.550;2023-10-08T05:58:04;34.72;;;29.30;;
32236;SDS011;18726;44.732;10.550;2023-10-08T06:01:28;34.53;;;30.67;;
32236;SDS011;18726;44.732;10.550;2023-10-08T06:04:43;39.25;;;31.20;;
32236;SDS011;18726;44.732;10.550;2023-10-08T06:08:07;31.55;;;27.98;;
32236;SDS011;18726;44.732;10.550;2023-10-08T06:11:16;27.25;;;24.23;;
32236;SDS011;18726;44.732;10.550;2023-10-08T06:14:33;29.58;;;26.33;;
32236;SDS011;18726;44.732;10.550;2023-10-08T06:18:06;31.67;;;27.02;;
32236;SDS011;18726;44.732;10.550;2023-10-08T06:21:11;27.17;;;24.38;;
32236;SDS011;18726;44.732;10.550;2023-10-08T06:24:19;26.67;;;23.73;;
32236;SDS011;18726;44.732;10.550;2023-10-08T06:27:24;30.20;;;26.77;;
32236;SDS011;18726;44.732;10.550;2023-10-08T06:30:28;28.90;;;26.00;;
32236;SDS011;18726;44.732;10.550;2023-10-08T06:33:37;23.50;;;21.08;;
32236;SDS011;18726;44.732;10.550;2023-10-08T06:36:43;24.40;;;22.13;;
32236;SDS011;18726;44.732;10.550;2023-10-08T06:39:47;24.45;;;21.85;;
32236;SDS011;18726;44.732;10.550;2023-10-08T06:42:51;24.95;;;22.45;;
32236;SDS011;18726;44.732;10.550;2023-10-08T06:45:55;24.45;;;20.58;;
32236;SDS011;18726;44.732;10.550;2023-10-08T06:49:06;25.55;;;22.80;;
32236;SDS011;18726;44.732;10.550;2023-10-08T06:52:14;21.60;;;19.38;;
32236;SDS011;18726;44.732;10.550;2023-10-08T06:55:18;21.55;;;19.40;;
32236;SDS011;18726;44.732;10.550;2023-10-08T06:58:25;20.10;;;17.75;;
32236;SDS011;18726;44.732;10.550;2023-10-08T07:01:29;17.40;;;15.77;;
32236;SDS011;18726;44.732;10.550;2023-10-08T07:04:42;24.55;;;18.27;;
32236;SDS011;18726;44.732;10.550;2023-10-08T07:07:47;16.27;;;14.70;;
32236;SDS011;18726;44.732;10.550;2023-10-08T07:10:50;17.55;;;15.60;;
32236;SDS011;18726;44.732;10.550;2023-10-08T07:13:55;19.05;;;16.83;;
32236;SDS011;18726;44.732;10.550;2023-10-08T07:17:00;15.25;;;13.23;;
32236;SDS011;18726;44.732;10.550;2023-10-08T07:20:05;15.90;;;14.52;;
32236;SDS011;18726;44.732;10.550;2023-10-08T07:23:17;24.25;;;15.32;;
32236;SDS011;18726;44.732;10.550;2023-10-08T07:26:28;17.58;;;15.95;;
32236;SDS011;18726;44.732;10.550;2023-10-08T07:29:49;18.08;;;16.17;;
32236;SDS011;18726;44.732;10.550;2023-10-08T07:32:58;16.70;;;14.93;;
32236;SDS011;18726;44.732;10.550;2023-10-08T07:36:01;16.45;;;14.82;;
32236;SDS011;18726;44.732;10.550;2023-10-08T07:39:15;16.30;;;14.52;;
32236;SDS011;18726;44.732;10.550;2023-10-08T07:42:34;17.08;;;14.65;;
32236;SDS011;18726;44.732;10.550;2023-10-08T07:45:37;16.23;;;14.52;;
32236;SDS011;18726;44.732;10.550;2023-10-08T07:48:42;16.67;;;14.98;;
32236;SDS011;18726;44.732;10.550;2023-10-08T07:51:46;15.50;;;14.07;;
32236;SDS011;18726;44.732;10.550;2023-10-08T07:54:53;18.35;;;13.40;;
32236;SDS011;18726;44.732;10.550;2023-10-08T07:57:57;14.20;;;12.80;;
32236;SDS011;18726;44.732;10.550;2023-10-08T08:01:02;17.10;;;15.43;;
32236;SDS011;18726;44.732;10.550;2023-10-08T08:04:09;15.07;;;13.57;;
32236;SDS011;18726;44.732;10.550;2023-10-08T08:07:14;14.13;;;12.73;;
32236;SDS011;18726;44.732;10.550;2023-10-08T08:10:21;17.38;;;14.70;;
32236;SDS011;18726;44.732;10.550;2023-10-08T08:13:26;16.17;;;13.30;;
32236;SDS011;18726;44.732;10.550;2023-10-08T08:16:31;13.90;;;12.43;;
32236;SDS011;18726;44.732;10.550;2023-10-08T08:19:34;14.32;;;13.02;;
32236;SDS011;18726;44.732;10.550;2023-10-08T08:22:39;15.95;;;14.30;;
32236;SDS011;18726;44.732;10.550;2023-10-08T08:25:44;14.40;;;13.07;;
32236;SDS011;18726;44.732;10.550;2023-10-08T08:29:06;17.27;;;15.68;;
32236;SDS011;18726;44.732;10.550;2023-10-08T08:32:12;15.63;;;14.13;;
32236;SDS011;18726;44.732;10.550;2023-10-08T08:35:19;16.70;;;15.05;;
32236;SDS011;18726;44.732;10.550;2023-10-08T08:38:23;18.70;;;16.63;;
32236;SDS011;18726;44.732;10.550;2023-10-08T08:41:27;16.45;;;14.80;;
32236;SDS011;18726;44.732;10.550;2023-10-08T08:44:31;17.05;;;15.50;;
32236;SDS011;18726;44.732;10.550;2023-10-08T08:47:40;19.20;;;17.35;;
32236;SDS011;18726;44.732;10.550;2023-10-08T08:50:47;18.70;;;17.10;;
32236;SDS011;18726;44.732;10.550;2023-10-08T08:53:52;18.02;;;16.30;;
32236;SDS011;18726;44.732;10.550;2023-10-08T08:56:59;18.15;;;16.15;;
32236;SDS011;18726;44.732;10.550;2023-10-08T09:00:07;17.75;;;16.08;;
32236;SDS011;18726;44.732;10.550;2023-10-08T09:03:15;19.38;;;17.25;;
32236;SDS011;18726;44.732;10.550;2023-10-08T09:06:18;18.13;;;16.35;;
32236;SDS011;18726;44.732;10.550;2023-10-08T09:09:23;18.17;;;16.00;;
32236;SDS011;18726;44.732;10.550;2023-10-08T09:12:34;18.13;;;16.23;;
32236;SDS011;18726;44.732;10.550;2023-10-08T09:15:38;22.65;;;16.00;;
32236;SDS011;18726;44.732;10.550;2023-10-08T09:18:42;20.90;;;18.95;;
32236;SDS011;18726;44.732;10.550;2023-10-08T09:22:00;17.40;;;15.80;;
32236;SDS011;18726;44.732;10.550;2023-10-08T09:25:07;20.08;;;18.10;;
32236;SDS011;18726;44.732;10.550;2023-10-08T09:28:12;18.25;;;16.45;;
32236;SDS011;18726;44.732;10.550;2023-10-08T09:31:18;19.92;;;18.13;;
32236;SDS011;18726;44.732;10.550;2023-10-08T09:34:27;19.38;;;17.58;;
32236;SDS011;18726;44.732;10.550;2023-10-08T09:37:33;18.20;;;16.27;;
32236;SDS011;18726;44.732;10.550;2023-10-08T09:40:38;19.75;;;18.02;;
32236;SDS011;18726;44.732;10.550;2023-10-08T09:43:45;19.08;;;16.98;;
32236;SDS011;18726;44.732;10.550;2023-10-08T09:47:08;17.77;;;16.00;;
32236;SDS011;18726;44.732;10.550;2023-10-08T09:50:15;19.23;;;17.35;;
32236;SDS011;18726;44.732;10.550;2023-10-08T09:53:22;18.88;;;17.23;;
32236;SDS011;18726;44.732;10.550;2023-10-08T09:56:35;20.30;;;18.25;;
32236;SDS011;18726;44.732;10.550;2023-10-08T09:59:42;19.48;;;17.48;;
32236;SDS011;18726;44.732;10.550;2023-10-08T10:02:47;22.50;;;20.30;;
32236;SDS011;18726;44.732;10.550;2023-10-08T10:05:51;20.25;;;17.90;;
32236;SDS011;18726;44.732;10.550;2023-10-08T10:08:55;18.35;;;16.67;;
32236;SDS011;18726;44.732;10.550;2023-10-08T10:12:02;21.55;;;17.30;;
32236;SDS011;18726;44.732;10.550;2023-10-08T10:15:13;20.95;;;18.83;;
32236;SDS011;18726;44.732;10.550;2023-10-08T10:18:38;21.58;;;18.60;;
32236;SDS011;18726;44.732;10.550;2023-10-08T10:21:41;21.25;;;19.13;;
32236;SDS011;18726;44.732;10.550;2023-10-08T10:24:45;21.95;;;19.67;;
32236;SDS011;18726;44.732;10.550;2023-10-08T10:30:57;24.88;;;22.30;;
32236;SDS011;18726;44.732;10.550;2023-10-08T10:34:05;20.58;;;18.45;;
32236;SDS011;18726;44.732;10.550;2023-10-08T10:37:11;24.60;;;20.23;;
32236;SDS011;18726;44.732;10.550;2023-10-08T10:40:26;21.75;;;18.27;;
32236;SDS011;18726;44.732;10.550;2023-10-08T10:43:43;22.55;;;20.20;;
32236;SDS011;18726;44.732;10.550;2023-10-08T10:46:56;21.65;;;18.15;;
32236;SDS011;18726;44.732;10.550;2023-10-08T10:50:18;20.08;;;18.08;;
32236;SDS011;18726;44.732;10.550;2023-10-08T10:53:37;22.80;;;17.27;;
32236;SDS011;18726;44.732;10.550;2023-10-08T10:57:08;20.83;;;18.05;;
32236;SDS011;18726;44.732;10.550;2023-10-08T11:00:25;19.20;;;17.27;;
32236;SDS011;18726;44.732;10.550;2023-10-08T11:03:35;18.30;;;16.38;;
32236;SDS011;18726;44.732;10.550;2023-10-08T11:06:39;23.05;;;17.65;;
32236;SDS011;18726;44.732;10.550;2023-10-08T11:09:43;19.52;;;17.52;;
32236;SDS011;18726;44.732;10.550;2023-10-08T11:12:48;20.77;;;17.95;;
32236;SDS011;18726;44.732;10.550;2023-10-08T11:15:56;21.15;;;16.42;;
32236;SDS011;18726;44.732;10.550;2023-10-08T11:19:02;22.30;;;16.30;;
32236;SDS011;18726;44.732;10.550;2023-10-08T11:22:09;25.10;;;15.85;;
32236;SDS011;18726;44.732;10.550;2023-10-08T11:25:20;17.98;;;16.17;;
32236;SDS011;18726;44.732;10.550;2023-10-08T11:28:34;19.83;;;14.05;;
32236;SDS011;18726;44.732;10.550;2023-10-08T11:31:45;20.33;;;14.80;;
32236;SDS011;18726;44.732;10.550;2023-10-08T11:34:48;17.55;;;15.20;;
32236;SDS011;18726;44.732;10.550;2023-10-08T11:37:59;18.48;;;15.48;;
32236;SDS011;18726;44.732;10.550;2023-10-08T11:41:12;19.75;;;15.73;;
32236;SDS011;18726;44.732;10.550;2023-10-08T11:44:26;22.35;;;16.17;;
32236;SDS011;18726;44.732;10.550;2023-10-08T11:47:33;22.58;;;15.70;;
32236;SDS011;18726;44.732;10.550;2023-10-08T11:50:39;23.77;;;17.15;;
32236;SDS011;18726;44.732;10.550;2023-10-08T11:53:44;24.08;;;19.60;;
32236;SDS011;18726;44.732;10.550;2023-10-08T11:56:47;22.63;;;19.88;;
32236;SDS011;18726;44.732;10.550;2023-10-08T11:59:51;22.63;;;17.75;;
32236;SDS011;18726;44.732;10.550;2023-10-08T12:02:57;20.27;;;18.13;;
32236;SDS011;18726;44.732;10.550;2023-10-08T12:06:01;27.73;;;19.33;;
32236;SDS011;18726;44.732;10.550;2023-10-08T12:09:08;23.20;;;16.92;;
32236;SDS011;18726;44.732;10.550;2023-10-08T12:12:15;20.48;;;15.60;;
32236;SDS011;18726;44.732;10.550;2023-10-08T12:15:25;21.73;;;16.08;;
32236;SDS011;18726;44.732;10.550;2023-10-08T12:18:38;25.23;;;15.50;;
32236;SDS011;18726;44.732;10.550;2023-10-08T12:21:47;22.20;;;15.60;;
32236;SDS011;18726;44.732;10.550;2023-10-08T12:24:51;20.67;;;15.63;;
32236;SDS011;18726;44.732;10.550;2023-10-08T12:27:55;26.38;;;15.57;;
32236;SDS011;18726;44.732;10.550;2023-10-08T12:31:00;25.27;;;13.60;;
32236;SDS011;18726;44.732;10.550;2023-10-08T12:34:06;22.10;;;13.70;;
32236;SDS011;18726;44.732;10.550;2023-10-08T12:37:15;21.97;;;14.73;;
32236;SDS011;18726;44.732;10.550;2023-10-08T12:40:19;18.90;;;13.32;;
32236;SDS011;18726;44.732;10.550;2023-10-08T12:43:26;24.15;;;14.32;;
32236;SDS011;18726;44.732;10.550;2023-10-08T12:46:30;20.13;;;13.90;;
32236;SDS011;18726;44.732;10.550;2023-10-08T12:49:40;14.70;;;13.18;;
32236;SDS011;18726;44.732;10.550;2023-10-08T12:52:44;22.88;;;13.90;;
32236;SDS011;18726;44.732;10.550;2023-10-08T12:55:56;19.80;;;12.80;;
32236;SDS011;18726;44.732;10.550;2023-10-08T12:59:02;20.13;;;13.10;;
32236;SDS011;18726;44.732;10.550;2023-10-08T13:02:11;18.17;;;12.07;;
32236;SDS011;18726;44.732;10.550;2023-10-08T13:05:15;20.42;;;13.77;;
32236;SDS011;18726;44.732;10.550;2023-10-08T13:08:21;18.15;;;12.70;;
32236;SDS011;18726;44.732;10.550;2023-10-08T13:11:26;18.33;;;12.48;;
32236;SDS011;18726;44.732;10.550;2023-10-08T13:14:32;20.08;;;12.63;;
32236;SDS011;18726;44.732;10.550;2023-10-08T13:17:40;18.33;;;12.80;;
32236;SDS011;18726;44.732;10.550;2023-10-08T13:20:48;17.70;;;12.88;;
32236;SDS011;18726;44.732;10.550;2023-10-08T13:23:53;19.63;;;13.25;;
32236;SDS011;18726;44.732;10.550;2023-10-08T13:27:00;18.35;;;12.95;;
32236;SDS011;18726;44.732;10.550;2023-10-08T13:30:05;15.52;;;12.20;;
32236;SDS011;18726;44.732;10.550;2023-10-08T13:33:12;24.10;;;13.52;;
32236;SDS011;18726;44.732;10.550;2023-10-08T13:36:16;21.45;;;13.70;;
32236;SDS011;18726;44.732;10.550;2023-10-08T13:39:20;18.42;;;12.43;;
32236;SDS011;18726;44.732;10.550;2023-10-08T13:42:24;18.10;;;12.10;;
32236;SDS011;18726;44.732;10.550;2023-10-08T13:45:30;17.15;;;13.32;;
32236;SDS011;18726;44.732;10.550;2023-10-08T13:48:36;21.92;;;12.45;;
32236;SDS011;18726;44.732;10.550;2023-10-08T13:51:39;21.25;;;11.93;;
32236;SDS011;18726;44.732;10.550;2023-10-08T13:54:43;21.95;;;11.88;;
32236;SDS011;18726;44.732;10.550;2023-10-08T13:57:55;20.08;;;11.13;;
32236;SDS011;18726;44.732;10.550;2023-10-08T14:01:00;13.07;;;11.25;;
32236;SDS011;18726;44.732;10.550;2023-10-08T14:04:07;15.65;;;10.85;;
32236;SDS011;18726;44.732;10.550;2023-10-08T14:07:12;19.20;;;12.25;;
32236;SDS011;18726;44.732;10.550;2023-10-08T14:10:23;16.27;;;12.32;;
32236;SDS011;18726;44.732;10.550;2023-10-08T14:13:32;22.05;;;12.50;;
32236;SDS011;18726;44.732;10.550;2023-10-08T14:16:39;16.60;;;12.55;;
32236;SDS011;18726;44.732;10.550;2023-10-08T14:19:46;28.90;;;11.80;;
32236;SDS011;18726;44.732;10.550;2023-10-08T14:22:50;17.30;;;12.95;;
32236;SDS011;18726;44.732;10.550;2023-10-08T14:26:01;19.10;;;11.82;;
32236;SDS011;18726;44.732;10.550;2023-10-08T14:29:07;16.45;;;12.07;;
32236;SDS011;18726;44.732;10.550;2023-10-08T14:32:13;23.98;;;13.10;;
32236;SDS011;18726;44.732;10.550;2023-10-08T14:35:18;26.92;;;12.48;;
32236;SDS011;18726;44.732;10.550;2023-10-08T14:38:41;21.08;;;12.27;;
32236;SDS011;18726;44.732;10.550;2023-10-08T14:42:04;21.85;;;13.40;;
32236;SDS011;18726;44.732;10.550;2023-10-08T14:45:27;23.95;;;12.88;;
32236;SDS011;18726;44.732;10.550;2023-10-08T14:48:34;18.77;;;12.25;;
32236;SDS011;18726;44.732;10.550;2023-10-08T14:51:43;20.20;;;12.23;;
32236;SDS011;18726;44.732;10.550;2023-10-08T14:54:52;18.52;;;11.13;;
32236;SDS011;18726;44.732;10.550;2023-10-08T14:57:55;21.23;;;12.75;;
32236;SDS011;18726;44.732;10.550;2023-10-08T15:01:00;26.98;;;12.13;;
32236;SDS011;18726;44.732;10.550;2023-10-08T15:04:04;16.45;;;11.77;;
32236;SDS011;18726;44.732;10.550;2023-10-08T15:07:10;13.63;;;12.35;;
32236;SDS011;18726;44.732;10.550;2023-10-08T15:10:15;20.00;;;11.68;;
32236;SDS011;18726;44.732;10.550;2023-10-08T15:13:21;21.83;;;12.48;;
32236;SDS011;18726;44.732;10.550;2023-10-08T15:16:25;13.75;;;11.35;;
32236;SDS011;18726;44.732;10.550;2023-10-08T15:19:29;20.48;;;11.77;;
32236;SDS011;18726;44.732;10.550;2023-10-08T15:22:35;15.65;;;11.80;;
32236;SDS011;18726;44.732;10.550;2023-10-08T15:25:40;19.63;;;12.23;;
32236;SDS011;18726;44.732;10.550;2023-10-08T15:28:44;18.05;;;11.38;;
32236;SDS011;18726;44.732;10.550;2023-10-08T15:31:49;14.48;;;11.38;;
32236;SDS011;18726;44.732;10.550;2023-10-08T15:34:55;17.55;;;12.13;;
32236;SDS011;18726;44.732;10.550;2023-10-08T15:37:59;18.10;;;12.05;;
32236;SDS011;18726;44.732;10.550;2023-10-08T15:41:07;17.50;;;14.15;;
32236;SDS011;18726;44.732;10.550;2023-10-08T15:44:11;22.73;;;14.25;;
32236;SDS011;18726;44.732;10.550;2023-10-08T15:47:16;23.40;;;11.55;;
32236;SDS011;18726;44.732;10.550;2023-10-08T15:50:21;16.08;;;12.50;;
32236;SDS011;18726;44.732;10.550;2023-10-08T15:53:27;18.33;;;12.52;;
32236;SDS011;18726;44.732;10.550;2023-10-08T15:56:31;22.20;;;11.45;;
32236;SDS011;18726;44.732;10.550;2023-10-08T15:59:36;13.15;;;11.68;;
32236;SDS011;18726;44.732;10.550;2023-10-08T16:02:40;17.50;;;11.90;;
32236;SDS011;18726;44.732;10.550;2023-10-08T16:05:46;16.73;;;11.60;;
32236;SDS011;18726;44.732;10.550;2023-10-08T16:08:51;15.98;;;11.95;;
32236;SDS011;18726;44.732;10.550;2023-10-08T16:11:55;18.52;;;11.93;;
32236;SDS011;18726;44.732;10.550;2023-10-08T16:15:01;13.23;;;11.93;;
32236;SDS011;18726;44.732;10.550;2023-10-08T16:18:05;13.93;;;11.07;;
32236;SDS011;18726;44.732;10.550;2023-10-08T16:21:09;14.45;;;11.60;;
32236;SDS011;18726;44.732;10.550;2023-10-08T16:24:16;13.63;;;11.45;;
32236;SDS011;18726;44.732;10.550;2023-10-08T16:27:19;23.75;;;13.23;;
32236;SDS011;18726;44.732;10.550;2023-10-08T16:30:24;20.33;;;12.23;;
32236;SDS011;18726;44.732;10.550;2023-10-08T16:33:31;22.23;;;12.57;;
32236;SDS011;18726;44.732;10.550;2023-10-08T16:36:35;17.95;;;11.57;;
32236;SDS011;18726;44.732;10.550;2023-10-08T16:39:41;26.80;;;13.60;;
32236;SDS011;18726;44.732;10.550;2023-10-08T16:42:45;17.92;;;14.48;;
32236;SDS011;18726;44.732;10.550;2023-10-08T16:45:52;23.92;;;15.27;;
32236;SDS011;18726;44.732;10.550;2023-10-08T16:48:57;25.05;;;15.18;;
32236;SDS011;18726;44.732;10.550;2023-10-08T16:52:00;32.35;;;17.75;;
32236;SDS011;18726;44.732;10.550;2023-10-08T16:55:05;29.77;;;17.85;;
32236;SDS011;18726;44.732;10.550;2023-10-08T17:08:57;27.23;;;18.23;;
32236;SDS011;18726;44.732;10.550;2023-10-08T17:12:01;24.95;;;14.55;;
32236;SDS011;18726;44.732;10.550;2023-10-08T17:15:06;14.77;;;12.02;;
32236;SDS011;18726;44.732;10.550;2023-10-08T17:18:13;13.57;;;11.32;;
32236;SDS011;18726;44.732;10.550;2023-10-08T17:21:17;22.48;;;13.70;;
32236;SDS011;18726;44.732;10.550;2023-10-08T17:24:22;17.00;;;12.32;;
32236;SDS011;18726;44.732;10.550;2023-10-08T17:27:26;28.23;;;15.18;;
32236;SDS011;18726;44.732;10.550;2023-10-08T17:30:31;22.02;;;15.35;;
32236;SDS011;18726;44.732;10.550;2023-10-08T17:33:35;29.10;;;17.13;;
32236;SDS011;18726;44.732;10.550;2023-10-08T17:36:40;43.35;;;20.58;;
32236;SDS011;18726;44.732;10.550;2023-10-08T17:39:43;38.75;;;21.50;;
32236;SDS011;18726;44.732;10.550;2023-10-08T17:42:48;42.67;;;19.83;;
32236;SDS011;18726;44.732;10.550;2023-10-08T17:45:52;40.03;;;21.95;;
32236;SDS011;18726;44.732;10.550;2023-10-08T17:48:56;53.17;;;22.27;;
32236;SDS011;18726;44.732;10.550;2023-10-08T17:52:00;37.33;;;22.42;;
32236;SDS011;18726;44.732;10.550;2023-10-08T17:55:03;31.92;;;18.35;;
32236;SDS011;18726;44.732;10.550;2023-10-08T17:58:09;29.42;;;19.52;;
32236;SDS011;18726;44.732;10.550;2023-10-08T18:01:14;31.17;;;20.33;;
32236;SDS011;18726;44.732;10.550;2023-10-08T18:04:19;20.75;;;13.70;;
32236;SDS011;18726;44.732;10.550;2023-10-08T18:07:26;20.98;;;16.80;;
32236;SDS011;18726;44.732;10.550;2023-10-08T18:10:30;27.95;;;17.63;;
32236;SDS011;18726;44.732;10.550;2023-10-08T18:13:39;35.90;;;20.48;;
32236;SDS011;18726;44.732;10.550;2023-10-08T18:16:45;39.30;;;21.13;;
32236;SDS011;18726;44.732;10.550;2023-10-08T18:19:50;30.65;;;19.15;;
32236;SDS011;18726;44.732;10.550;2023-10-08T18:22:54;29.08;;;19.80;;
32236;SDS011;18726;44.732;10.550;2023-10-08T18:25:58;28.90;;;19.15;;
32236;SDS011;18726;44.732;10.550;2023-10-08T18:29:03;30.20;;;18.65;;
32236;SDS011;18726;44.732;10.550;2023-10-08T18:32:09;21.55;;;17.00;;
32236;SDS011;18726;44.732;10.550;2023-10-08T18:35:13;29.05;;;17.58;;
32236;SDS011;18726;44.732;10.550;2023-10-08T18:38:17;22.23;;;14.90;;
32236;SDS011;18726;44.732;10.550;2023-10-08T18:41:21;25.20;;;15.93;;
32236;SDS011;18726;44.732;10.550;2023-10-08T18:44:27;26.10;;;19.45;;
32236;SDS011;18726;44.732;10.550;2023-10-08T18:47:41;29.58;;;17.85;;
32236;SDS011;18726;44.732;10.550;2023-10-08T18:50:49;26.80;;;16.73;;
32236;SDS011;18726;44.732;10.550;2023-10-08T18:53:54;27.60;;;17.20;;
32236;SDS011;18726;44.732;10.550;2023-10-08T18:57:02;30.38;;;16.38;;
32236;SDS011;18726;44.732;10.550;2023-10-08T19:00:19;29.48;;;15.45;;
32236;SDS011;18726;44.732;10.550;2023-10-08T19:03:24;27.77;;;14.98;;
32236;SDS011;18726;44.732;10.550;2023-10-08T19:06:28;24.48;;;13.63;;
32236;SDS011;18726;44.732;10.550;2023-10-08T19:09:32;24.40;;;14.57;;
32236;SDS011;18726;44.732;10.550;2023-10-08T19:12:37;23.60;;;13.38;;
32236;SDS011;18726;44.732;10.550;2023-10-08T19:15:41;20.25;;;13.27;;
32236;SDS011;18726;44.732;10.550;2023-10-08T19:18:46;20.17;;;12.63;;
32236;SDS011;18726;44.732;10.550;2023-10-08T19:21:50;20.58;;;11.60;;
32236;SDS011;18726;44.732;10.550;2023-10-08T19:24:54;19.00;;;11.90;;
32236;SDS011;18726;44.732;10.550;2023-10-08T19:27:58;22.67;;;13.25;;
32236;SDS011;18726;44.732;10.550;2023-10-08T19:31:07;29.60;;;12.95;;
32236;SDS011;18726;44.732;10.550;2023-10-08T19:34:14;20.35;;;12.82;;
32236;SDS011;18726;44.732;10.550;2023-10-08T19:37:18;24.02;;;11.93;;
32236;SDS011;18726;44.732;10.550;2023-10-08T19:40:22;19.85;;;12.65;;
32236;SDS011;18726;44.732;10.550;2023-10-08T19:43:27;23.27;;;13.60;;
32236;SDS011;18726;44.732;10.550;2023-10-08T19:46:32;28.05;;;15.77;;
32236;SDS011;18726;44.732;10.550;2023-10-08T19:49:35;27.85;;;16.77;;
32236;SDS011;18726;44.732;10.550;2023-10-08T19:52:40;27.55;;;16.95;;
32236;SDS011;18726;44.732;10.550;2023-10-08T19:55:46;23.10;;;15.98;;
32236;SDS011;18726;44.732;10.550;2023-10-08T19:58:54;22.52;;;13.70;;
32236;SDS011;18726;44.732;10.550;2023-10-08T20:02:01;14.20;;;10.88;;
32236;SDS011;18726;44.732;10.550;2023-10-08T20:05:05;24.33;;;16.58;;
32236;SDS011;18726;44.732;10.550;2023-10-08T20:08:13;30.60;;;17.95;;
32236;SDS011;18726;44.732;10.550;2023-10-08T20:11:19;32.60;;;16.73;;
32236;SDS011;18726;44.732;10.550;2023-10-08T20:14:24;25.63;;;18.05;;
32236;SDS011;18726;44.732;10.550;2023-10-08T20:17:29;28.77;;;17.73;;
32236;SDS011;18726;44.732;10.550;2023-10-08T20:20:33;30.00;;;20.55;;
32236;SDS011;18726;44.732;10.550;2023-10-08T20:23:38;34.28;;;20.73;;
32236;SDS011;18726;44.732;10.550;2023-10-08T20:26:43;32.92;;;21.45;;
32236;SDS011;18726;44.732;10.550;2023-10-08T20:29:46;28.55;;;21.30;;
32236;SDS011;18726;44.732;10.550;2023-10-08T20:32:50;33.83;;;20.92;;
32236;SDS011;18726;44.732;10.550;2023-10-08T20:35:58;40.65;;;22.85;;
32236;SDS011;18726;44.732;10.550;2023-10-08T20:39:01;33.50;;;24.23;;
32236;SDS011;18726;44.732;10.550;2023-10-08T20:42:06;32.60;;;25.38;;
32236;SDS011;18726;44.732;10.550;2023-10-08T20:45:11;43.90;;;24.33;;
32236;SDS011;18726;44.732;10.550;2023-10-08T20:48:17;31.80;;;22.08;;
32236;SDS011;18726;44.732;10.550;2023-10-08T20:51:22;45.58;;;24.63;;
32236;SDS011;18726;44.732;10.550;2023-10-08T20:54:27;25.98;;;18.27;;
32236;SDS011;18726;44.732;10.550;2023-10-08T20:57:32;23.70;;;18.02;;
32236;SDS011;18726;44.732;10.550;2023-10-08T21:00:36;28.02;;;20.08;;
32236;SDS011;18726;44.732;10.550;2023-10-08T21:03:48;21.88;;;16.58;;
32236;SDS011;18726;44.732;10.550;2023-10-08T21:06:52;23.83;;;16.80;;
32236;SDS011;18726;44.732;10.550;2023-10-08T21:09:56;21.20;;;13.68;;
32236;SDS011;18726;44.732;10.550;2023-10-08T21:13:01;16.00;;;12.27;;
32236;SDS011;18726;44.732;10.550;2023-10-08T21:16:13;22.45;;;15.95;;
32236;SDS011;18726;44.732;10.550;2023-10-08T21:19:21;29.42;;;19.92;;
32236;SDS011;18726;44.732;10.550;2023-10-08T21:25:43;15.95;;;13.18;;
32236;SDS011;18726;44.732;10.550;2023-10-08T21:28:51;22.70;;;13.30;;
32236;SDS011;18726;44.732;10.550;2023-10-08T21:31:56;19.92;;;13.25;;
32236;SDS011;18726;44.732;10.550;2023-10-08T21:35:00;25.70;;;15.32;;
32236;SDS011;18726;44.732;10.550;2023-10-08T21:38:05;21.55;;;16.23;;
32236;SDS011;18726;44.732;10.550;2023-10-08T21:41:11;22.63;;;17.08;;
32236;SDS011;18726;44.732;10.550;2023-10-08T21:44:15;35.22;;;21.85;;
32236;SDS011;18726;44.732;10.550;2023-10-08T21:47:19;34.70;;;22.00;;
32236;SDS011;18726;44.732;10.550;2023-10-08T21:50:23;30.25;;;22.63;;
32236;SDS011;18726;44.732;10.550;2023-10-08T21:53:27;27.63;;;21.35;;
32236;SDS011;18726;44.732;10.550;2023-10-08T21:56:32;29.85;;;19.85;;
32236;SDS011;18726;44.732;10.550;2023-10-08T21:59:36;26.27;;;17.50;;
32236;SDS011;18726;44.732;10.550;2023-10-08T22:02:43;28.90;;;17.75;;
32236;SDS011;18726;44.732;10.550;2023-10-08T22:05:48;30.60;;;19.13;;
32236;SDS011;18726;44.732;10.550;2023-10-08T22:08:51;33.10;;;20.23;;
32236;SDS011;18726;44.732;10.550;2023-10-08T22:11:56;22.60;;;16.90;;
32236;SDS011;18726;44.732;10.550;2023-10-08T22:15:01;19.90;;;13.68;;
32236;SDS011;18726;44.732;10.550;2023-10-08T22:18:19;24.08;;;16.38;;
32236;SDS011;18726;44.732;10.550;2023-10-08T22:21:31;18.40;;;13.10;;
32236;SDS011;18726;44.732;10.550;2023-10-08T22:24:38;18.30;;;14.90;;
32236;SDS011;18726;44.732;10.550;2023-10-08T22:27:43;28.40;;;18.25;;
32236;SDS011;18726;44.732;10.550;2023-10-08T22:30:49;24.42;;;15.23;;
32236;SDS011;18726;44.732;10.550;2023-10-08T22:33:55;17.23;;;13.70;;
32236;SDS011;18726;44.732;10.550;2023-10-08T22:37:07;20.00;;;13.13;;
32236;SDS011;18726;44.732;10.550;2023-10-08T22:40:22;16.90;;;11.15;;
32236;SDS011;18726;44.732;10.550;2023-10-08T22:43:28;19.02;;;12.20;;
32236;SDS011;18726;44.732;10.550;2023-10-08T22:46:41;21.33;;;14.57;;
32236;SDS011;18726;44.732;10.550;2023-10-08T22:49:46;19.67;;;15.75;;
32236;SDS011;18726;44.732;10.550;2023-10-08T22:52:57;22.77;;;15.37;;
32236;SDS011;18726;44.732;10.550;2023-10-08T22:56:04;24.35;;;16.50;;
32236;SDS011;18726;44.732;10.550;2023-10-08T22:59:09;31.40;;;19.88;;
32236;SDS011;18726;44.732;10.550;2023-10-08T23:02:18;19.80;;;15.95;;
32236;SDS011;18726;44.732;10.550;2023-10-08T23:05:22;22.20;;;12.50;;
32236;SDS011;18726;44.732;10.550;2023-10-08T23:08:26;19.10;;;12.20;;
32236;SDS011;18726;44.732;10.550;2023-10-08T23:11:30;17.45;;;11.55;;
32236;SDS011;18726;44.732;10.550;2023-10-08T23:14:33;23.45;;;11.35;;
32236;SDS011;18726;44.732;10.550;2023-10-08T23:17:40;19.30;;;11.57;;
32236;SDS011;18726;44.732;10.550;2023-10-08T23:20:45;17.77;;;12.82;;
32236;SDS011;18726;44.732;10.550;2023-10-08T23:23:49;25.20;;;15.00;;
32236;SDS011;18726;44.732;10.550;2023-10-08T23:26:53;18.55;;;13.07;;
32236;SDS011;18726;44.732;10.550;2023-10-08T23:29:57;15.30;;;10.63;;
32236;SDS011;18726;44.732;10.550;2023-10-08T23:33:01;18.00;;;12.60;;
32236;SDS011;18726;44.732;10.550;2023-10-08T23:36:10;17.70;;;12.02;;
32236;SDS011;18726;44.732;10.550;2023-10-08T23:39:17;13.95;;;9.20;;
32236;SDS011;18726;44.732;10.550;2023-10-08T23:42:21;17.13;;;10.55;;